Aeroporto :
LOGIN :

Iscrizione | Disclaimer

   EN    FR    IT 

 










Sommario :    VFR   VFR Marginale   IFR   IFR Intensivo   IFR Molto Intensivo
Visibilità : 
Base nubi : 
>= 8 km
>= 3000ft
5 / 8 km
1000 / 3000 ft
1500m / 5 km
500 / 1000 ft
800 / 1500m
200 / 500 ft
< 800m
< 200 ft
Simboli :   Temporali  Nebbia  Neve Forte  Precipitazioni Forti  Vento > 20 kt
SIGMETs :   Varie  Temporali  Ghiacco  Turbolenza  Onda orograficha  Ceneri Vulcaniche







- Altitudine del aeroporto : 1411 ft
- Codice IATA : SZG


LOWS - Salzburg

ULTIMO METAR :
  • 231420Z 01005KT 270V080 9999 FEW050 18/07 Q1018 NOSIG

METARs OBSOLETI :
  • 231350Z 34008KT 300V020 9999 FEW048 18/07 Q1018 NOSIG
  • 231320Z 34010KT 320V020 9999 FEW046 18/08 Q1018 NOSIG
  • 231250Z 33006KT 270V050 9999 FEW036 SCT048 17/07 Q1018 NOSIG
  • 231220Z 36007KT 310V040 9999 FEW036 SCT050 17/07 Q1019 NOSIG
  • 231150Z 32007KT 270V360 9999 FEW036 SCT044 17/08 Q1019 NOSIG

TAF TAF LOWS
Valido dal 23 a 12 ore il 24 a 12 ore UTC


231115Z 2312/2412 33006KT 9999 FEW030 SCT080 TX20/2412Z TN07/2403Z
BECMG 2317/2319 15003KT CAVOK
BECMG 2407/2409 33004KT
Nessun NOTAM noto per questo aeroporto.



MetMap, La meteo Aeronautica in un colpo d'occhio ! - Copyright ORBIFLY Dicembre 2007 - Disclaimer

ORBIFLY MET'MAP TEAM :

Programmazione e sviluppo : Alexandra Zaïnal
Concezione e sviluppo : Baudouin d'Aumeries
Co-Programmazione e sviluppo : Marc-Olivier Méhu
Supporto tecnico e logistico : Manuel Goepfert
Aiuto per la traduzione : Arnaldo La Scala

Contatto : metmap@orbifly.com




FONTI E CREDITI :

   NOAA